createdAt,value
2019-01-14T00:01:52.777Z,995.87
2019-01-14T00:02:53.375Z,995.91
2019-01-14T00:04:47.860Z,995.87
2019-01-14T00:07:02.102Z,995.79
2019-01-14T00:08:02.090Z,995.82
2019-01-14T00:09:56.790Z,995.81
2019-01-14T00:10:56.734Z,995.95
2019-01-14T00:12:51.445Z,996.04
2019-01-14T00:13:51.918Z,996.00
2019-01-14T00:15:46.802Z,996.07
2019-01-14T00:16:46.589Z,996.11
2019-01-14T00:18:40.567Z,996.11
2019-01-14T00:19:40.716Z,996.18
2019-01-14T00:21:35.855Z,996.12
2019-01-14T00:22:35.914Z,996.18
2019-01-14T00:24:30.464Z,996.21
2019-01-14T00:25:30.454Z,996.22
2019-01-14T00:27:24.712Z,996.24
2019-01-14T00:28:24.592Z,996.24
2019-01-14T00:30:19.236Z,996.28
2019-01-14T00:31:19.793Z,996.37
2019-01-14T00:33:14.763Z,996.42
2019-01-14T00:34:14.540Z,996.42
2019-01-14T00:36:08.617Z,996.52
2019-01-14T00:37:09.163Z,996.45
2019-01-14T00:39:03.702Z,996.48
2019-01-14T00:40:03.768Z,996.55
2019-01-14T00:41:57.478Z,996.58
2019-01-14T00:42:58.538Z,996.58
2019-01-14T00:44:52.484Z,996.66
2019-01-14T00:45:52.600Z,996.66
2019-01-14T00:47:46.872Z,996.63
2019-01-14T00:48:47.221Z,996.79
2019-01-14T00:50:41.864Z,996.81
2019-01-14T00:51:42.429Z,996.78
2019-01-14T00:53:36.440Z,996.80
2019-01-14T00:54:37.008Z,996.85
2019-01-14T00:56:31.182Z,996.79
2019-01-14T00:57:31.468Z,996.78
2019-01-14T00:59:25.311Z,996.89
2019-01-14T01:00:25.886Z,996.95
2019-01-14T01:02:20.828Z,996.95
2019-01-14T01:03:21.154Z,997.01
2019-01-14T01:05:15.199Z,996.93
2019-01-14T01:06:15.628Z,997.00
2019-01-14T01:08:10.128Z,997.03
2019-01-14T01:09:09.790Z,997.10
2019-01-14T01:11:04.465Z,997.16
2019-01-14T01:12:04.933Z,997.13
2019-01-14T01:13:59.515Z,997.14
2019-01-14T01:14:59.115Z,997.21
2019-01-14T01:16:53.247Z,997.21
2019-01-14T01:17:53.798Z,997.33
2019-01-14T01:19:48.464Z,997.30
2019-01-14T01:20:48.391Z,997.35
2019-01-14T01:22:42.296Z,997.32
2019-01-14T01:23:42.984Z,997.39
2019-01-14T01:25:37.637Z,997.35
2019-01-14T01:26:37.237Z,997.41
2019-01-14T01:28:31.623Z,997.50
2019-01-14T01:29:31.944Z,997.41
2019-01-14T01:31:26.556Z,997.51
2019-01-14T01:32:26.539Z,997.56
2019-01-14T01:34:21.179Z,997.63
2019-01-14T01:35:22.124Z,997.66
2019-01-14T01:37:15.804Z,997.70
2019-01-14T01:38:15.887Z,997.67
2019-01-14T01:40:10.477Z,997.74
2019-01-14T01:41:10.852Z,997.77
2019-01-14T01:43:05.326Z,997.80
2019-01-14T01:44:05.670Z,997.81
2019-01-14T01:46:00.245Z,997.87
2019-01-14T01:47:00.272Z,997.90
2019-01-14T01:48:54.832Z,997.90
2019-01-14T01:49:54.931Z,997.94
2019-01-14T01:51:49.625Z,997.99
2019-01-14T01:52:48.393Z,998.03
2019-01-14T01:53:49.189Z,997.98
2019-01-14T01:54:49.130Z,998.04
2019-01-14T01:55:49.580Z,998.00
2019-01-14T01:56:48.585Z,998.12
2019-01-14T01:57:49.619Z,998.15
2019-01-14T01:58:49.591Z,998.16
2019-01-14T01:59:49.044Z,998.20
2019-01-14T02:00:49.564Z,998.25
2019-01-14T02:01:48.767Z,998.22
2019-01-14T02:02:49.090Z,998.29
2019-01-14T02:03:49.585Z,998.30
2019-01-14T02:04:49.143Z,998.28
2019-01-14T02:05:49.667Z,998.28
2019-01-14T02:06:49.007Z,998.28
2019-01-14T02:07:49.568Z,998.27
2019-01-14T02:08:49.598Z,998.32
2019-01-14T02:09:49.571Z,998.31
2019-01-14T02:10:49.700Z,998.28
2019-01-14T02:11:49.651Z,998.37
2019-01-14T02:12:49.590Z,998.34
2019-01-14T02:13:49.614Z,998.39
2019-01-14T02:14:49.569Z,998.39
2019-01-14T02:15:49.588Z,998.39
2019-01-14T02:16:50.039Z,998.42
2019-01-14T02:17:49.554Z,998.44
2019-01-14T02:18:49.578Z,998.53
2019-01-14T02:19:49.612Z,998.50
2019-01-14T02:20:49.677Z,998.53
2019-01-14T02:21:49.060Z,998.51
2019-01-14T02:22:49.548Z,998.51
2019-01-14T02:23:49.035Z,998.53
2019-01-14T02:24:49.056Z,998.52
2019-01-14T02:25:49.016Z,998.51
2019-01-14T02:26:49.092Z,998.53
2019-01-14T02:27:49.120Z,998.58
2019-01-14T02:28:49.054Z,998.63
2019-01-14T02:29:49.096Z,998.62
2019-01-14T02:30:49.033Z,998.66
2019-01-14T02:31:49.043Z,998.67
2019-01-14T02:32:49.064Z,998.70
2019-01-14T02:33:49.067Z,998.72
2019-01-14T02:34:49.157Z,998.76
2019-01-14T02:35:49.041Z,998.78
2019-01-14T02:36:49.076Z,998.88
2019-01-14T02:37:49.078Z,998.86
2019-01-14T02:38:49.067Z,998.89
2019-01-14T02:40:49.072Z,998.90
2019-01-14T02:42:49.114Z,998.93
2019-01-14T02:43:49.140Z,998.97
2019-01-14T02:44:49.083Z,998.96
2019-01-14T02:45:49.110Z,998.99
2019-01-14T02:46:49.591Z,999.00
2019-01-14T02:47:49.383Z,999.04
2019-01-14T02:48:49.177Z,999.05
2019-01-14T02:49:48.631Z,999.14
2019-01-14T02:50:49.098Z,999.11
2019-01-14T02:51:49.120Z,999.18
2019-01-14T02:52:49.128Z,999.12
2019-01-14T02:53:49.113Z,999.20
2019-01-14T02:54:49.520Z,999.14
2019-01-14T02:55:49.138Z,999.13
2019-01-14T02:56:49.141Z,999.23
2019-01-14T02:57:49.203Z,999.19
2019-01-14T02:58:49.124Z,999.20
2019-01-14T02:59:49.161Z,999.22
2019-01-14T03:00:49.106Z,999.28
2019-01-14T03:01:49.384Z,999.31
2019-01-14T03:02:49.143Z,999.29
2019-01-14T03:03:50.958Z,999.35
2019-01-14T03:04:49.143Z,999.31
2019-01-14T03:05:51.045Z,999.31
2019-01-14T03:06:53.480Z,999.33
2019-01-14T03:07:49.111Z,999.34
2019-01-14T03:08:49.437Z,999.32
2019-01-14T03:09:49.167Z,999.43
2019-01-14T03:10:49.086Z,999.43
2019-01-14T03:11:49.136Z,999.34
2019-01-14T03:12:49.088Z,999.39
2019-01-14T03:13:49.298Z,999.37
2019-01-14T03:14:49.077Z,999.32
2019-01-14T03:16:49.136Z,999.44
2019-01-14T03:17:49.057Z,999.45
2019-01-14T03:18:49.076Z,999.40
2019-01-14T03:19:49.128Z,999.42
2019-01-14T03:21:23.882Z,999.42
2019-01-14T03:21:46.702Z,999.41
2019-01-14T03:22:48.688Z,999.45
2019-01-14T03:24:49.166Z,999.53
2019-01-14T03:25:57.771Z,999.49
2019-01-14T03:26:49.138Z,999.54
2019-01-14T03:27:49.070Z,999.54
2019-01-14T03:28:49.135Z,999.55
2019-01-14T03:29:49.094Z,999.66
2019-01-14T03:30:49.132Z,999.60
2019-01-14T03:31:49.126Z,999.61
2019-01-14T03:32:49.158Z,999.57
2019-01-14T03:33:49.375Z,999.64
2019-01-14T03:34:49.355Z,999.63
2019-01-14T03:35:49.164Z,999.68
2019-01-14T03:36:49.622Z,999.74
2019-01-14T03:37:49.418Z,999.76
2019-01-14T03:38:49.644Z,999.76
2019-01-14T03:39:50.642Z,999.80
2019-01-14T03:40:49.116Z,999.84
2019-01-14T03:41:49.628Z,999.85
2019-01-14T03:42:49.357Z,999.86
2019-01-14T03:43:50.635Z,999.85
2019-01-14T03:44:50.627Z,999.87
2019-01-14T03:45:49.892Z,999.85
2019-01-14T03:46:48.616Z,999.82
2019-01-14T03:47:48.620Z,999.87
2019-01-14T03:48:48.665Z,999.86
2019-01-14T03:49:48.624Z,999.90
2019-01-14T03:50:48.656Z,999.93
2019-01-14T03:52:48.642Z,999.99
2019-01-14T03:53:48.158Z,999.98
2019-01-14T03:54:48.645Z,999.99
2019-01-14T03:55:48.587Z,999.99
2019-01-14T03:56:48.635Z,1000.00
2019-01-14T03:57:48.604Z,1000.01
2019-01-14T03:58:48.639Z,999.95
2019-01-14T03:59:48.626Z,999.99
2019-01-14T04:00:50.469Z,1000.00
2019-01-14T04:01:48.692Z,1000.03
2019-01-14T04:02:48.634Z,999.99
2019-01-14T04:03:48.628Z,1000.02
2019-01-14T04:04:48.593Z,1000.03
2019-01-14T04:05:48.653Z,1000.04
2019-01-14T04:06:48.665Z,1000.09
2019-01-14T04:07:49.069Z,1000.04
2019-01-14T04:08:48.698Z,1000.06
2019-01-14T04:09:48.596Z,1000.06
2019-01-14T04:10:48.764Z,1000.07
2019-01-14T04:11:54.705Z,1000.13
2019-01-14T04:12:50.530Z,1000.06
2019-01-14T04:13:48.643Z,1000.02
2019-01-14T04:14:48.673Z,1000.09
2019-01-14T04:15:48.588Z,1000.08
2019-01-14T04:16:48.591Z,1000.05
2019-01-14T04:17:49.042Z,1000.11
2019-01-14T04:18:48.587Z,1000.07
2019-01-14T04:19:48.559Z,1000.10
2019-01-14T04:20:54.504Z,1000.14
2019-01-14T04:21:48.493Z,1000.19
2019-01-14T04:22:48.089Z,1000.17
2019-01-14T04:23:48.534Z,1000.21
2019-01-14T04:24:48.514Z,1000.21
2019-01-14T04:25:48.659Z,1000.22
2019-01-14T04:26:48.589Z,1000.26
2019-01-14T04:27:48.598Z,1000.30
2019-01-14T04:28:48.572Z,1000.28
2019-01-14T04:29:48.570Z,1000.26
2019-01-14T04:30:48.444Z,1000.28
2019-01-14T04:31:48.609Z,1000.27
2019-01-14T04:32:48.117Z,1000.34
2019-01-14T04:33:48.638Z,1000.36
2019-01-14T04:34:48.668Z,1000.35
2019-01-14T04:35:48.626Z,1000.39
2019-01-14T04:36:48.659Z,1000.43
2019-01-14T04:37:48.103Z,1000.39
2019-01-14T04:38:48.671Z,1000.38
2019-01-14T04:39:48.614Z,1000.33
2019-01-14T04:40:48.612Z,1000.35
2019-01-14T04:41:48.682Z,1000.33
2019-01-14T04:42:48.625Z,1000.33
2019-01-14T04:43:48.546Z,1000.34
2019-01-14T04:44:50.362Z,1000.35
2019-01-14T04:45:50.149Z,1000.37
2019-01-14T04:46:48.628Z,1000.36
2019-01-14T04:47:48.512Z,1000.42
2019-01-14T04:48:47.978Z,1000.42
2019-01-14T04:49:48.064Z,1000.46
2019-01-14T04:50:48.077Z,1000.43
2019-01-14T04:51:48.332Z,1000.46
2019-01-14T04:52:48.152Z,1000.43
2019-01-14T04:53:48.535Z,1000.52
2019-01-14T04:54:50.558Z,1000.49
2019-01-14T04:55:47.872Z,1000.48
2019-01-14T04:56:48.100Z,1000.50
2019-01-14T04:57:48.187Z,1000.49
2019-01-14T04:58:47.641Z,1000.47
2019-01-14T04:59:48.063Z,1000.45
2019-01-14T05:00:47.865Z,1000.54
2019-01-14T05:01:48.272Z,1000.54
2019-01-14T05:02:48.588Z,1000.53
2019-01-14T05:03:47.615Z,1000.56
2019-01-14T05:04:48.123Z,1000.60
2019-01-14T05:05:48.118Z,1000.62
2019-01-14T05:06:48.161Z,1000.64
2019-01-14T05:07:48.029Z,1000.63
2019-01-14T05:08:48.058Z,1000.69
2019-01-14T05:09:47.957Z,1000.70
2019-01-14T05:10:48.358Z,1000.70
2019-01-14T05:11:48.063Z,1000.75
2019-01-14T05:12:48.104Z,1000.74
2019-01-14T05:13:48.105Z,1000.78
2019-01-14T05:14:48.111Z,1000.75
2019-01-14T05:15:48.050Z,1000.79
2019-01-14T05:16:48.135Z,1000.80
2019-01-14T05:17:48.090Z,1000.77
2019-01-14T05:18:47.897Z,1000.82
2019-01-14T05:19:48.091Z,1000.85
2019-01-14T05:20:48.084Z,1000.86
2019-01-14T05:21:48.119Z,1000.91
2019-01-14T05:22:48.187Z,1000.92
2019-01-14T05:23:48.371Z,1000.94
2019-01-14T05:24:50.111Z,1001.02
2019-01-14T05:25:48.140Z,1001.02
2019-01-14T05:26:48.153Z,1001.08
2019-01-14T05:27:50.062Z,1001.03
2019-01-14T05:28:48.171Z,1001.04
2019-01-14T05:29:48.419Z,1001.08
2019-01-14T05:30:48.140Z,1001.03
2019-01-14T05:31:48.153Z,1001.10
2019-01-14T05:32:48.161Z,1001.08
2019-01-14T05:33:48.165Z,1001.13
2019-01-14T05:34:48.167Z,1001.09
2019-01-14T05:35:48.190Z,1001.15
2019-01-14T05:36:48.135Z,1001.21
2019-01-14T05:37:48.599Z,1001.21
2019-01-14T05:38:47.343Z,1001.25
2019-01-14T05:39:48.501Z,1001.24
2019-01-14T05:40:48.171Z,1001.28
2019-01-14T05:41:48.576Z,1001.29
2019-01-14T05:42:47.985Z,1001.30
2019-01-14T05:43:48.172Z,1001.33
2019-01-14T05:44:48.038Z,1001.36
2019-01-14T05:45:47.543Z,1001.42
2019-01-14T05:46:48.169Z,1001.31
2019-01-14T05:47:48.159Z,1001.33
2019-01-14T05:48:48.563Z,1001.37
2019-01-14T05:49:47.620Z,1001.35
2019-01-14T05:50:47.469Z,1001.37
2019-01-14T05:51:47.388Z,1001.40
2019-01-14T05:52:47.625Z,1001.43
2019-01-14T05:53:47.615Z,1001.44
2019-01-14T05:54:47.606Z,1001.46
2019-01-14T05:55:48.097Z,1001.42
2019-01-14T05:56:48.110Z,1001.47
2019-01-14T05:57:47.548Z,1001.53
2019-01-14T05:58:48.040Z,1001.50
2019-01-14T05:59:47.638Z,1001.46
2019-01-14T06:00:47.560Z,1001.49
2019-01-14T06:01:48.420Z,1001.53
2019-01-14T06:02:48.037Z,1001.57
2019-01-14T06:03:47.320Z,1001.55
2019-01-14T06:04:47.563Z,1001.58
2019-01-14T06:05:48.059Z,1001.56
2019-01-14T06:06:47.615Z,1001.57
2019-01-14T06:07:47.701Z,1001.59
2019-01-14T06:08:48.070Z,1001.59
2019-01-14T06:09:47.576Z,1001.61
2019-01-14T06:10:47.292Z,1001.67
2019-01-14T06:11:47.531Z,1001.65
2019-01-14T06:12:47.577Z,1001.69
2019-01-14T06:13:48.127Z,1001.68
2019-01-14T06:14:47.462Z,1001.72
2019-01-14T06:15:47.644Z,1001.67
2019-01-14T06:16:48.035Z,1001.71
2019-01-14T06:17:47.573Z,1001.69
2019-01-14T06:18:47.171Z,1001.72
2019-01-14T06:19:47.677Z,1001.68
2019-01-14T06:20:47.918Z,1001.72
2019-01-14T06:21:48.062Z,1001.72
2019-01-14T06:22:47.208Z,1001.70
2019-01-14T06:23:47.467Z,1001.71
2019-01-14T06:24:47.180Z,1001.70
2019-01-14T06:25:47.552Z,1001.67
2019-01-14T06:26:47.619Z,1001.66
2019-01-14T06:27:47.529Z,1001.68
2019-01-14T06:28:48.094Z,1001.70
2019-01-14T06:29:47.643Z,1001.76
2019-01-14T06:30:48.077Z,1001.75
2019-01-14T06:31:47.473Z,1001.78
2019-01-14T06:32:47.473Z,1001.80
2019-01-14T06:33:47.812Z,1001.78
2019-01-14T06:34:47.669Z,1001.82
2019-01-14T06:35:48.169Z,1001.76
2019-01-14T06:36:47.157Z,1001.77
2019-01-14T06:37:52.305Z,1001.75
2019-01-14T06:38:47.028Z,1001.76
2019-01-14T06:39:47.629Z,1001.78
2019-01-14T06:40:47.703Z,1001.78
2019-01-14T06:41:47.594Z,1001.79
2019-01-14T06:42:47.025Z,1001.77
2019-01-14T06:43:47.570Z,1001.80
2019-01-14T06:44:47.602Z,1001.72
2019-01-14T06:45:47.604Z,1001.79
2019-01-14T06:46:47.049Z,1001.86
2019-01-14T06:47:47.551Z,1001.81
2019-01-14T06:48:47.512Z,1001.90
2019-01-14T06:49:47.599Z,1001.94
2019-01-14T06:50:47.615Z,1001.88
2019-01-14T06:51:47.672Z,1001.92
2019-01-14T06:52:47.551Z,1001.92
2019-01-14T06:53:47.408Z,1001.93
2019-01-14T06:54:47.676Z,1001.93
2019-01-14T06:55:47.531Z,1001.99
2019-01-14T06:56:47.572Z,1002.00
2019-01-14T06:57:47.421Z,1001.95
2019-01-14T06:58:53.613Z,1002.02
2019-01-14T06:59:47.610Z,1002.10
2019-01-14T07:00:47.471Z,1002.09
2019-01-14T07:01:47.887Z,1002.16
2019-01-14T07:02:48.083Z,1002.18
2019-01-14T07:03:47.593Z,1002.15
2019-01-14T07:04:47.426Z,1002.14
2019-01-14T07:05:47.582Z,1002.17
2019-01-14T07:06:47.613Z,1002.22
2019-01-14T07:07:47.583Z,1002.18
2019-01-14T07:08:47.180Z,1002.24
2019-01-14T07:09:47.146Z,1002.27
2019-01-14T07:10:47.556Z,1002.32
2019-01-14T07:11:47.811Z,1002.33
2019-01-14T07:12:47.824Z,1002.38
2019-01-14T07:13:46.974Z,1002.36
2019-01-14T07:14:47.127Z,1002.39
2019-01-14T07:15:47.541Z,1002.47
2019-01-14T07:16:47.807Z,1002.53
2019-01-14T07:17:48.195Z,1002.57
2019-01-14T07:18:47.146Z,1002.51
2019-01-14T07:19:47.123Z,1002.50
2019-01-14T07:20:47.156Z,1002.48
2019-01-14T07:21:49.111Z,1002.54
2019-01-14T07:22:47.419Z,1002.57
2019-01-14T07:23:47.127Z,1002.62
2019-01-14T07:24:47.108Z,1002.64
2019-01-14T07:25:47.137Z,1002.67
2019-01-14T07:26:47.154Z,1002.64
2019-01-14T07:27:47.067Z,1002.71
2019-01-14T07:28:47.132Z,1002.68
2019-01-14T07:29:47.301Z,1002.76
2019-01-14T07:30:46.772Z,1002.84
2019-01-14T07:31:47.214Z,1002.78
2019-01-14T07:32:47.869Z,1002.89
2019-01-14T07:33:47.178Z,1002.85
2019-01-14T07:34:47.047Z,1002.85
2019-01-14T07:35:47.102Z,1002.87
2019-01-14T07:36:47.136Z,1002.94
2019-01-14T07:37:47.211Z,1002.93
2019-01-14T07:38:47.025Z,1002.90
2019-01-14T07:39:47.096Z,1002.91
2019-01-14T07:40:47.032Z,1002.95
2019-01-14T07:41:46.953Z,1002.97
2019-01-14T07:42:47.017Z,1002.97
2019-01-14T07:43:47.034Z,1002.97
2019-01-14T07:44:46.985Z,1002.96
2019-01-14T07:45:44.941Z,1003.05
2019-01-14T07:46:46.783Z,1003.11
2019-01-14T07:47:44.835Z,1003.09
2019-01-14T07:48:44.849Z,1003.09
2019-01-14T07:49:46.648Z,1003.08
2019-01-14T07:50:46.438Z,1003.16
2019-01-14T07:51:44.840Z,1003.12
2019-01-14T07:52:44.829Z,1003.14
2019-01-14T07:53:46.279Z,1003.13
2019-01-14T07:54:44.808Z,1003.18
2019-01-14T07:55:45.955Z,1003.25
2019-01-14T07:56:46.580Z,1003.23
2019-01-14T07:57:45.802Z,1003.25
2019-01-14T07:58:45.631Z,1003.32
2019-01-14T07:59:45.800Z,1003.28
2019-01-14T08:00:44.789Z,1003.37
2019-01-14T08:01:46.255Z,1003.37
2019-01-14T08:02:44.694Z,1003.40
2019-01-14T08:03:45.948Z,1003.38
2019-01-14T08:04:45.971Z,1003.38
2019-01-14T08:05:47.390Z,1003.39
2019-01-14T08:06:46.210Z,1003.40
2019-01-14T08:07:45.696Z,1003.51
2019-01-14T08:08:44.755Z,1003.40
2019-01-14T08:09:47.279Z,1003.45
2019-01-14T08:10:44.735Z,1003.44
2019-01-14T08:11:45.695Z,1003.47
2019-01-14T08:12:45.992Z,1003.52
2019-01-14T08:13:47.479Z,1003.47
2019-01-14T08:14:46.340Z,1003.41
2019-01-14T08:15:46.389Z,1003.38
2019-01-14T08:16:46.396Z,1003.34
2019-01-14T08:17:46.400Z,1003.45
2019-01-14T08:18:45.945Z,1003.47
2019-01-14T08:19:46.246Z,1003.44
2019-01-14T08:20:46.388Z,1003.47
2019-01-14T08:21:46.115Z,1003.63
2019-01-14T08:22:46.573Z,1003.56
2019-01-14T08:23:46.346Z,1003.63
2019-01-14T08:24:47.424Z,1003.65
2019-01-14T08:25:45.686Z,1003.80
2019-01-14T08:26:46.433Z,1003.69
2019-01-14T08:27:46.003Z,1003.80
2019-01-14T08:28:45.752Z,1003.77
2019-01-14T08:29:45.691Z,1003.86
2019-01-14T08:30:48.081Z,1003.90
2019-01-14T08:31:46.041Z,1003.79
2019-01-14T08:32:45.935Z,1003.86
2019-01-14T08:33:46.019Z,1003.86
2019-01-14T08:34:46.057Z,1003.91
2019-01-14T08:35:45.766Z,1003.91
2019-01-14T08:36:46.464Z,1003.95
2019-01-14T08:37:46.075Z,1003.95
2019-01-14T08:38:45.790Z,1003.90
2019-01-14T08:39:45.620Z,1003.91
2019-01-14T08:40:45.989Z,1003.98
2019-01-14T08:41:45.324Z,1003.97
2019-01-14T08:42:45.156Z,1004.00
2019-01-14T08:43:45.410Z,1004.10
2019-01-14T08:44:44.365Z,1004.04
2019-01-14T08:45:44.439Z,1004.11
2019-01-14T08:46:44.455Z,1004.17
2019-01-14T08:47:44.438Z,1004.16
2019-01-14T08:48:48.764Z,1004.18
2019-01-14T08:49:44.512Z,1004.25
2019-01-14T08:50:44.359Z,1004.21
2019-01-14T08:51:46.495Z,1004.31
2019-01-14T08:52:46.078Z,1004.33
2019-01-14T08:53:44.305Z,1004.29
2019-01-14T08:54:46.239Z,1004.32
2019-01-14T08:55:46.071Z,1004.32
2019-01-14T08:56:46.270Z,1004.30
2019-01-14T08:58:20.181Z,1004.36
2019-01-14T08:58:51.325Z,1004.38
2019-01-14T08:59:45.963Z,1004.39
2019-01-14T09:00:46.069Z,1004.37
2019-01-14T09:01:46.253Z,1004.39
2019-01-14T09:02:45.955Z,1004.40
2019-01-14T09:03:46.144Z,1004.35
2019-01-14T09:04:46.070Z,1004.39
2019-01-14T09:05:46.383Z,1004.36
2019-01-14T09:06:46.340Z,1004.35
2019-01-14T09:07:44.191Z,1004.39
2019-01-14T09:08:45.997Z,1004.43
2019-01-14T09:09:46.347Z,1004.43
2019-01-14T09:10:46.320Z,1004.49
2019-01-14T09:11:46.675Z,1004.48
2019-01-14T09:12:46.800Z,1004.45
2019-01-14T09:13:46.521Z,1004.47
2019-01-14T09:14:44.136Z,1004.56
2019-01-14T09:15:47.366Z,1004.52
2019-01-14T09:16:46.430Z,1004.67
2019-01-14T09:17:46.425Z,1004.57
2019-01-14T09:18:46.115Z,1004.59
2019-01-14T09:19:47.992Z,1004.65
2019-01-14T09:20:46.177Z,1004.63
2019-01-14T09:21:46.160Z,1004.60
2019-01-14T09:22:44.186Z,1004.68
2019-01-14T09:23:46.137Z,1004.65
2019-01-14T09:24:46.123Z,1004.72
2019-01-14T09:25:45.954Z,1004.68
2019-01-14T09:26:46.417Z,1004.77
2019-01-14T09:27:44.311Z,1004.66
2019-01-14T09:28:44.070Z,1004.64
2019-01-14T09:29:46.560Z,1004.71
2019-01-14T09:30:44.098Z,1004.75
2019-01-14T09:31:45.967Z,1004.80
2019-01-14T09:32:46.624Z,1004.73
2019-01-14T09:33:46.530Z,1004.70
2019-01-14T09:35:46.550Z,1004.83
2019-01-14T09:36:46.181Z,1004.76
2019-01-14T09:37:46.208Z,1004.78
2019-01-14T09:40:17.492Z,1004.71
2019-01-14T09:41:17.493Z,1004.74
2019-01-14T09:43:12.036Z,1004.84
2019-01-14T09:44:12.013Z,1004.80
2019-01-14T09:46:06.323Z,1004.78
2019-01-14T09:47:08.437Z,1004.70
2019-01-14T09:49:00.788Z,1004.75
2019-01-14T09:51:17.414Z,1004.81
2019-01-14T09:53:32.247Z,1004.77
2019-01-14T09:54:34.481Z,1004.80
2019-01-14T09:57:58.414Z,1004.87
2019-01-14T09:59:00.679Z,1004.85
2019-01-14T10:00:53.105Z,1004.77
2019-01-14T10:01:57.070Z,1004.79
2019-01-14T10:03:59.416Z,1004.90
2019-01-14T10:04:47.815Z,1004.90
2019-01-14T10:06:42.448Z,1004.91
2019-01-14T10:07:44.128Z,1004.95
2019-01-14T10:09:37.134Z,1004.90
2019-01-14T10:10:38.599Z,1004.90
2019-01-14T10:12:31.224Z,1005.03
2019-01-14T10:13:32.793Z,1004.95
2019-01-14T10:15:25.416Z,1004.90
2019-01-14T10:16:25.420Z,1004.95
2019-01-14T10:18:19.465Z,1004.94
2019-01-14T10:19:19.530Z,1005.04
2019-01-14T10:21:15.106Z,1005.00
2019-01-14T10:22:13.671Z,1005.00
2019-01-14T10:24:08.318Z,1005.06
2019-01-14T10:25:10.500Z,1005.12
2019-01-14T10:28:41.184Z,1005.23
2019-01-14T10:30:51.764Z,1005.15
2019-01-14T10:31:52.770Z,1005.26
2019-01-14T10:33:46.830Z,1005.26
2019-01-14T10:36:01.368Z,1005.29
2019-01-14T10:38:15.758Z,1005.30
2019-01-14T10:39:14.606Z,1005.19
2019-01-14T10:41:08.402Z,1005.27
2019-01-14T10:42:10.403Z,1005.33
2019-01-14T10:44:04.563Z,1005.32
2019-01-14T10:45:06.851Z,1005.32
2019-01-14T10:46:04.545Z,1005.43
2019-01-14T10:47:25.502Z,1005.46
2019-01-14T10:49:39.463Z,1005.52
2019-01-14T10:50:53.049Z,1005.46
2019-01-14T10:51:36.305Z,1005.50
2019-01-14T10:52:38.238Z,1005.48
2019-01-14T10:53:37.999Z,1005.51
2019-01-14T10:56:25.119Z,1005.62
2019-01-14T10:58:30.019Z,1005.53
2019-01-14T10:59:23.877Z,1005.48
2019-01-14T11:01:45.503Z,1005.50
2019-01-14T11:02:18.618Z,1005.60
2019-01-14T11:04:13.314Z,1005.61
2019-01-14T11:06:27.976Z,1005.65
2019-01-14T11:07:27.948Z,1005.57
2019-01-14T11:09:22.542Z,1005.68
2019-01-14T11:10:22.549Z,1005.71
2019-01-14T11:12:17.535Z,1005.69
2019-01-14T11:13:17.245Z,1005.70
2019-01-14T11:15:12.075Z,1005.78
2019-01-14T11:16:12.143Z,1005.79
2019-01-14T11:18:06.624Z,1005.72
2019-01-14T11:19:06.571Z,1005.78
2019-01-14T11:20:06.579Z,1005.77
2019-01-14T11:21:21.436Z,1005.80
2019-01-14T11:22:34.423Z,1005.83
2019-01-14T11:23:06.535Z,1005.83
2019-01-14T11:24:06.687Z,1005.90
2019-01-14T11:25:06.596Z,1005.92
2019-01-14T11:26:06.569Z,1005.90
2019-01-14T11:27:07.243Z,1005.92
2019-01-14T11:28:08.350Z,1005.93
2019-01-14T11:29:07.806Z,1005.92
2019-01-14T11:30:08.302Z,1005.98
2019-01-14T11:31:08.299Z,1005.90
2019-01-14T11:32:08.824Z,1006.07
2019-01-14T11:33:08.003Z,1005.92
2019-01-14T11:34:07.863Z,1006.01
2019-01-14T11:35:42.984Z,1006.10
2019-01-14T11:36:06.514Z,1005.91
2019-01-14T11:37:08.738Z,1005.89
2019-01-14T11:38:23.871Z,1006.00
2019-01-14T11:39:24.707Z,1006.06
2019-01-14T11:40:08.692Z,1006.03
2019-01-14T11:41:09.293Z,1006.04
2019-01-14T11:42:29.584Z,1006.05
2019-01-14T11:43:08.923Z,1006.08
2019-01-14T11:44:08.300Z,1006.01
2019-01-14T11:45:07.759Z,1006.13
2019-01-14T11:46:09.022Z,1006.09
2019-01-14T11:47:10.312Z,1006.11
2019-01-14T11:48:29.316Z,1006.17
2019-01-14T11:49:08.314Z,1006.06
2019-01-14T11:50:09.119Z,1006.31
2019-01-14T11:51:08.388Z,1006.20
2019-01-14T11:52:08.403Z,1006.13
2019-01-14T11:53:08.883Z,1006.04
2019-01-14T11:54:08.310Z,1006.03
2019-01-14T11:55:15.278Z,1006.04
2019-01-14T11:56:08.844Z,1006.18
2019-01-14T11:57:14.827Z,1006.11
2019-01-14T11:58:08.197Z,1006.08
2019-01-14T11:59:07.902Z,1006.18
2019-01-14T12:00:08.132Z,1006.19
2019-01-14T12:01:08.282Z,1006.17
2019-01-14T12:02:15.299Z,1005.94
2019-01-14T12:03:08.615Z,1005.93
2019-01-14T12:04:07.907Z,1005.92
2019-01-14T12:05:08.302Z,1006.32
2019-01-14T12:06:08.936Z,1006.30
2019-01-14T12:07:07.882Z,1006.18
2019-01-14T12:08:09.106Z,1006.09
2019-01-14T12:09:12.225Z,1006.54
2019-01-14T12:10:08.817Z,1006.52
2019-01-14T12:11:08.173Z,1006.54
2019-01-14T12:12:08.202Z,1006.52
2019-01-14T12:13:09.158Z,1006.44
2019-01-14T12:14:08.271Z,1006.28
2019-01-14T12:15:08.833Z,1006.55
2019-01-14T12:16:08.533Z,1006.50
2019-01-14T12:17:11.567Z,1006.62
2019-01-14T12:18:08.877Z,1006.60
2019-01-14T12:19:09.323Z,1006.62
2019-01-14T12:20:08.244Z,1006.59
2019-01-14T12:21:08.514Z,1006.67
2019-01-14T12:22:09.307Z,1006.58
2019-01-14T12:23:07.991Z,1006.52
2019-01-14T12:24:23.147Z,1006.51
2019-01-14T12:25:09.334Z,1006.44
2019-01-14T12:26:08.127Z,1006.52
2019-01-14T12:27:08.052Z,1006.49
2019-01-14T12:28:08.886Z,1006.52
2019-01-14T12:29:08.487Z,1006.31
2019-01-14T12:30:08.818Z,1006.51
2019-01-14T12:31:09.285Z,1006.35
2019-01-14T12:32:08.388Z,1006.39
2019-01-14T12:33:08.557Z,1006.37
2019-01-14T12:34:08.898Z,1006.31
2019-01-14T12:35:09.317Z,1006.35
2019-01-14T12:36:09.318Z,1006.32
2019-01-14T12:37:08.945Z,1006.31
2019-01-14T12:38:08.313Z,1006.44
2019-01-14T12:39:08.754Z,1006.45
2019-01-14T12:40:08.867Z,1006.43
2019-01-14T12:41:08.184Z,1006.45
2019-01-14T12:42:08.864Z,1006.49
2019-01-14T12:43:09.324Z,1006.42
2019-01-14T12:44:08.174Z,1006.47
2019-01-14T12:45:09.329Z,1006.45
2019-01-14T12:46:09.684Z,1006.55
2019-01-14T12:47:09.320Z,1006.53
2019-01-14T12:48:08.543Z,1006.45
2019-01-14T12:49:08.596Z,1006.48
2019-01-14T12:50:08.801Z,1006.36
2019-01-14T12:51:08.997Z,1006.45
2019-01-14T12:52:09.045Z,1006.47
2019-01-14T12:53:08.414Z,1006.40
2019-01-14T12:54:08.672Z,1006.42
2019-01-14T12:55:09.102Z,1006.41
2019-01-14T12:56:08.794Z,1006.41
2019-01-14T12:57:08.579Z,1006.42
2019-01-14T12:58:08.902Z,1006.46
2019-01-14T12:59:08.431Z,1006.47
2019-01-14T13:00:08.865Z,1006.48
2019-01-14T13:01:08.804Z,1006.53
2019-01-14T13:02:08.427Z,1006.57
2019-01-14T13:03:09.339Z,1006.66
2019-01-14T13:04:08.743Z,1006.63
2019-01-14T13:05:08.219Z,1006.74
2019-01-14T13:06:08.780Z,1007.02
2019-01-14T13:07:07.641Z,1007.05
2019-01-14T13:08:09.200Z,1007.07
2019-01-14T13:09:09.008Z,1007.14
2019-01-14T13:10:08.394Z,1007.09
2019-01-14T13:11:08.829Z,1007.22
2019-01-14T13:12:08.741Z,1007.27
2019-01-14T13:13:08.375Z,1007.16
2019-01-14T13:14:08.765Z,1006.95
2019-01-14T13:15:08.837Z,1007.08
2019-01-14T13:16:08.832Z,1007.03
2019-01-14T13:17:08.128Z,1006.99
2019-01-14T13:18:08.593Z,1007.04
2019-01-14T13:19:09.620Z,1007.05
2019-01-14T13:20:08.122Z,1007.03
2019-01-14T13:21:08.503Z,1007.02
2019-01-14T13:22:08.842Z,1006.93
2019-01-14T13:23:07.978Z,1006.91
2019-01-14T13:24:08.610Z,1006.97
2019-01-14T13:25:09.632Z,1007.00
2019-01-14T13:26:08.452Z,1006.96
2019-01-14T13:27:11.328Z,1006.98
2019-01-14T13:28:08.899Z,1006.97
2019-01-14T13:29:08.491Z,1006.96
2019-01-14T13:30:08.610Z,1006.95
2019-01-14T13:31:09.321Z,1006.96